Time;durP1;ratioP1;P1;durP2;ratioP2;P2;SDS_P1;SDS_P2;PMS_P1;PMS_P2;Temp;Humidity;BMP_temperature;BMP_pressure;BME280_temperature;BME280_humidity;BME280_pressure;Samples;Min_cycle;Max_cycle;Signal;HPM_P1;HPM_P2
2022/07/09 00:01:04;;;;;;;8.10;5.72;;;;;;;20.70;50.67;99249.36;1693655;84;20945;-67
2022/07/09 00:03:30;;;;;;;6.87;6.20;;;;;;;20.62;50.96;99248.94;1694022;84;21011;-67
2022/07/09 00:05:57;;;;;;;8.48;7.58;;;;;;;20.54;51.09;99249.31;1695655;84;21006;-67
2022/07/09 00:08:24;;;;;;;9.53;8.65;;;;;;;20.50;50.95;99253.55;1695985;84;21225;-67
2022/07/09 00:10:51;;;;;;;7.72;6.97;;;;;;;20.39;50.77;99271.42;1696219;84;20992;-67
2022/07/09 00:13:18;;;;;;;6.47;5.00;;;;;;;20.33;50.98;99268.34;1697824;84;20940;-67
2022/07/09 00:15:45;;;;;;;13.32;4.67;;;;;;;20.28;51.25;99273.64;1692587;84;21545;-67
2022/07/09 00:18:11;;;;;;;4.33;3.62;;;;;;;20.23;51.38;99277.55;1699288;84;21442;-67
2022/07/09 00:20:38;;;;;;;4.62;3.60;;;;;;;20.14;51.35;99273.56;1702790;84;22162;-67
2022/07/09 00:23:04;;;;;;;4.15;3.05;;;;;;;20.08;51.58;99277.20;1702301;84;20931;-67
2022/07/09 00:25:31;;;;;;;3.55;3.20;;;;;;;20.07;51.65;99283.67;1694316;84;21021;-67
2022/07/09 00:27:57;;;;;;;7.80;4.83;;;;;;;20.02;51.52;99284.91;1699699;84;21006;-67
2022/07/09 00:30:24;;;;;;;9.70;6.40;;;;;;;19.93;51.53;99284.95;1694886;84;20964;-67
2022/07/09 00:32:51;;;;;;;7.83;6.15;;;;;;;19.85;51.84;99290.19;1698651;84;21148;-67
2022/07/09 00:35:17;;;;;;;19.82;12.55;;;;;;;19.80;52.02;99277.92;1696832;84;21032;-67
2022/07/09 00:37:44;;;;;;;21.52;15.95;;;;;;;19.78;52.14;99281.91;1694703;84;20930;-67
2022/07/09 00:40:11;;;;;;;25.30;18.23;;;;;;;19.74;52.18;99278.84;1703733;84;20968;-67
2022/07/09 00:42:37;;;;;;;24.45;18.45;;;;;;;19.70;52.10;99281.20;1703451;84;20946;-66
2022/07/09 00:45:06;;;;;;;26.23;18.80;;;;;;;19.61;52.14;99279.06;1704513;84;21098;-67
2022/07/09 00:47:33;;;;;;;21.60;16.25;;;;;;;19.55;52.22;99286.77;1695397;84;20900;-67
2022/07/09 00:50:00;;;;;;;20.72;16.00;;;;;;;19.48;52.42;99279.28;1697141;84;20947;-67
2022/07/09 00:52:26;;;;;;;18.30;12.37;;;;;;;19.42;52.53;99278.33;1688845;84;20976;-67
2022/07/09 00:54:53;;;;;;;11.90;9.15;;;;;;;19.34;52.82;99270.57;1699458;84;20856;-66
2022/07/09 00:57:19;;;;;;;12.13;8.05;;;;;;;19.27;52.90;99275.22;1697942;84;21072;-66
2022/07/09 00:59:46;;;;;;;12.68;6.97;;;;;;;19.20;52.97;99270.98;1700383;84;20993;-67
2022/07/09 01:02:12;;;;;;;7.53;6.33;;;;;;;19.15;53.08;99272.20;1698554;84;20967;-67
2022/07/09 01:04:39;;;;;;;6.83;5.78;;;;;;;19.09;53.22;99273.95;1702004;84;20904;-67
2022/07/09 01:07:06;;;;;;;6.92;5.55;;;;;;;19.04;53.35;99278.69;1698964;84;21132;-67
2022/07/09 01:09:33;;;;;;;5.97;4.85;;;;;;;19.00;53.49;99279.38;1696216;84;21225;-67
2022/07/09 01:11:59;;;;;;;5.60;4.50;;;;;;;18.96;53.67;99282.22;1701776;84;20994;-67
2022/07/09 01:14:27;;;;;;;6.37;4.37;;;;;;;18.88;53.75;99277.98;1703724;84;20991;-67
2022/07/09 01:16:59;;;;;;;6.87;5.28;;;;;;;18.83;53.95;99287.27;1704040;83;21027;-67
2022/07/09 01:19:28;;;;;;;6.85;5.60;;;;;;;18.78;54.13;99280.92;1696111;83;21565;-67
2022/07/09 01:21:55;;;;;;;8.53;6.53;;;;;;;18.71;54.37;99280.19;1700712;83;21163;-67
2022/07/09 01:24:22;;;;;;;10.60;7.33;;;;;;;18.62;54.58;99281.53;1695901;83;20897;-66
2022/07/09 01:26:49;;;;;;;9.05;7.47;;;;;;;18.57;54.77;99275.48;1696370;83;21480;-67
2022/07/09 01:29:16;;;;;;;11.95;7.12;;;;;;;18.53;54.91;99272.97;1695636;83;21021;-67
2022/07/09 01:31:43;;;;;;;7.78;6.78;;;;;;;18.46;55.06;99276.20;1702076;83;20954;-67
2022/07/09 01:34:09;;;;;;;8.38;5.47;;;;;;;18.40;55.35;99272.57;1698303;83;21247;-67
2022/07/09 01:36:36;;;;;;;6.83;5.35;;;;;;;18.36;55.36;99280.78;1696588;83;20907;-67
2022/07/09 01:39:04;;;;;;;7.20;5.05;;;;;;;18.33;55.57;99281.23;1696210;83;20958;-67
2022/07/09 01:41:32;;;;;;;6.12;4.97;;;;;;;18.27;55.72;99282.16;1699825;83;21553;-67
2022/07/09 01:43:58;;;;;;;12.98;6.62;;;;;;;18.23;55.95;99286.32;1701207;83;21499;-67
2022/07/09 01:46:26;;;;;;;8.48;5.67;;;;;;;18.16;56.42;99287.44;1666251;85;21380;-67
2022/07/09 01:48:53;;;;;;;7.00;5.42;;;;;;;18.07;56.73;99286.11;1666160;85;20906;-67
2022/07/09 01:51:21;;;;;;;5.60;5.05;;;;;;;17.98;57.15;99288.25;1661059;85;21067;-67
2022/07/09 01:53:49;;;;;;;4.37;3.85;;;;;;;17.91;57.53;99291.51;1630785;87;20957;-67
2022/07/09 01:56:16;;;;;;;4.95;4.45;;;;;;;17.86;57.82;99290.84;1669208;84;21000;-67
2022/07/09 01:58:44;;;;;;;4.62;4.10;;;;;;;17.86;58.03;99291.35;1627543;86;21288;-67
2022/07/09 02:01:12;;;;;;;4.30;3.60;;;;;;;17.81;58.33;99292.02;1659184;84;21016;-67
2022/07/09 02:03:38;;;;;;;6.33;4.80;;;;;;;17.75;58.65;99302.31;1641256;86;21588;-67
2022/07/09 02:06:05;;;;;;;11.10;8.83;;;;;;;17.66;58.96;99297.44;1651214;86;21559;-67
2022/07/09 02:08:33;;;;;;;13.85;8.25;;;;;;;17.55;59.31;99302.18;1645512;86;21061;-67
2022/07/09 02:10:59;;;;;;;11.93;9.95;;;;;;;17.41;59.83;99292.55;1642977;86;21264;-67
2022/07/09 02:13:26;;;;;;;13.40;10.13;;;;;;;17.31;60.37;99294.39;1642490;86;21004;-66
2022/07/09 02:15:54;;;;;;;15.03;11.30;;;;;;;17.24;60.85;99296.28;1643017;86;21428;-67
2022/07/09 02:18:21;;;;;;;12.93;11.15;;;;;;;17.21;61.16;99296.20;1635182;86;20925;-67
2022/07/09 02:20:49;;;;;;;13.72;10.48;;;;;;;17.20;61.50;99301.29;1631024;88;20988;-66
2022/07/09 02:23:16;;;;;;;11.57;10.38;;;;;;;17.17;61.84;99303.06;1628781;87;21226;-66
2022/07/09 02:25:42;;;;;;;13.30;9.68;;;;;;;17.15;62.12;99310.49;1631312;87;20935;-66
2022/07/09 02:28:09;;;;;;;9.40;7.17;;;;;;;17.12;62.39;99302.89;1630821;87;21009;-67
2022/07/09 02:30:36;;;;;;;7.33;6.65;;;;;;;17.12;62.78;99304.23;1631161;87;21080;-66
2022/07/09 02:33:04;;;;;;;8.53;5.80;;;;;;;17.12;63.17;99302.89;1631237;87;21019;-67
2022/07/09 02:35:31;;;;;;;7.20;5.87;;;;;;;17.09;63.47;99306.00;1631435;87;21907;-66
2022/07/09 02:37:58;;;;;;;6.12;5.40;;;;;;;17.09;63.83;99307.34;1631601;87;21532;-66
2022/07/09 02:40:26;;;;;;;8.88;5.75;;;;;;;17.12;64.02;99306.92;1631557;87;20999;-67
2022/07/09 02:42:52;;;;;;;7.97;5.97;;;;;;;17.11;64.23;99299.89;1632167;87;20954;-67
2022/07/09 02:45:19;;;;;;;5.28;4.75;;;;;;;17.10;64.47;99303.60;1647096;87;21002;-67
2022/07/09 02:47:45;;;;;;;5.72;4.60;;;;;;;17.10;64.72;99303.60;1631583;87;21984;-67
2022/07/09 02:50:12;;;;;;;6.62;5.90;;;;;;;17.14;64.90;99301.31;1631448;87;21029;-67
2022/07/09 02:52:38;;;;;;;7.80;5.15;;;;;;;17.14;65.08;99304.83;1622851;88;21016;-67
2022/07/09 02:55:07;;;;;;;6.47;5.15;;;;;;;17.16;65.30;99300.57;1646972;87;21043;-67
2022/07/09 02:57:33;;;;;;;5.60;5.10;;;;;;;17.21;65.55;99298.05;1631489;87;21016;-67
2022/07/09 03:00:00;;;;;;;5.20;4.55;;;;;;;17.33;65.59;99306.27;1631458;87;21263;-67
2022/07/09 03:02:27;;;;;;;5.15;4.65;;;;;;;17.42;65.52;99310.31;1631463;87;20996;-68
2022/07/09 03:04:54;;;;;;;5.40;4.87;;;;;;;17.49;65.53;99307.91;1633226;87;20943;-67
2022/07/09 03:07:21;;;;;;;10.50;5.97;;;;;;;17.57;65.46;99310.33;1632907;87;20932;-67
2022/07/09 03:09:48;;;;;;;8.33;5.90;;;;;;;17.67;65.39;99309.86;1631978;87;21514;-68
2022/07/09 03:12:15;;;;;;;7.97;6.33;;;;;;;17.78;65.31;99311.84;1631552;87;22107;-67
2022/07/09 03:14:42;;;;;;;7.80;6.65;;;;;;;17.91;65.15;99310.34;1631255;87;21012;-67
2022/07/09 03:17:10;;;;;;;9.43;8.05;;;;;;;18.03;64.83;99303.21;1631739;86;21016;-67
2022/07/09 03:19:37;;;;;;;10.35;8.33;;;;;;;18.06;64.56;99306.81;1694112;84;20942;-67
2022/07/09 03:22:05;;;;;;;11.60;8.63;;;;;;;18.09;64.54;99310.41;1691165;84;21535;-68
2022/07/09 03:24:31;;;;;;;13.08;8.33;;;;;;;18.10;64.39;99307.17;1694525;84;21146;-67
2022/07/09 03:26:58;;;;;;;6.37;5.78;;;;;;;18.12;64.39;99315.87;1692110;84;21596;-67
2022/07/09 03:29:24;;;;;;;6.62;6.03;;;;;;;18.13;64.21;99316.98;1695062;84;21075;-67
2022/07/09 03:31:51;;;;;;;7.62;5.87;;;;;;;18.08;64.17;99311.95;1693465;84;21428;-67
2022/07/09 03:34:17;;;;;;;5.70;5.22;;;;;;;18.01;64.43;99317.42;1695711;84;21584;-68
2022/07/09 03:36:44;;;;;;;5.65;5.15;;;;;;;18.03;64.68;99317.19;1690105;84;21744;-66
2022/07/09 03:39:11;;;;;;;5.95;5.42;;;;;;;18.08;64.81;99315.48;1687980;84;21539;-68
2022/07/09 03:41:37;;;;;;;5.20;4.78;;;;;;;18.15;64.77;99316.23;1699421;84;20924;-67
2022/07/09 03:44:04;;;;;;;12.43;9.15;;;;;;;18.14;64.67;99316.46;1698778;84;21142;-68
2022/07/09 03:46:31;;;;;;;10.30;9.03;;;;;;;18.15;64.83;99310.84;1693059;84;20899;-68
2022/07/09 03:48:57;;;;;;;10.55;8.45;;;;;;;18.13;64.96;99308.08;1690186;83;21134;-67
2022/07/09 03:51:24;;;;;;;10.65;8.13;;;;;;;18.12;65.09;99315.32;1693835;84;20947;-67
2022/07/09 03:53:51;;;;;;;12.33;8.93;;;;;;;18.10;65.31;99313.38;1690713;84;20865;-67
2022/07/09 03:56:19;;;;;;;11.15;9.48;;;;;;;18.16;65.59;99311.67;1695740;84;21010;-67
2022/07/09 03:58:46;;;;;;;12.68;10.15;;;;;;;18.26;65.54;99307.94;1693990;84;20989;-67
2022/07/09 04:01:12;;;;;;;13.55;11.28;;;;;;;18.34;65.47;99307.64;1690737;84;21248;-67
2022/07/09 04:03:39;;;;;;;15.72;10.25;;;;;;;18.37;65.34;99303.16;1693452;83;21058;-67
2022/07/09 04:06:06;;;;;;;12.65;9.63;;;;;;;18.49;65.35;99304.91;1697722;84;21520;-67
2022/07/09 04:08:34;;;;;;;10.10;9.05;;;;;;;18.59;65.25;99297.63;1695849;84;21061;-68
2022/07/09 04:11:01;;;;;;;10.40;9.40;;;;;;;18.79;65.09;99293.36;1690760;83;20864;-68
2022/07/09 04:13:27;;;;;;;10.50;8.03;;;;;;;19.07;64.53;99298.45;1696094;84;21249;-67
2022/07/09 04:15:54;;;;;;;16.90;15.15;;;;;;;19.40;63.83;99289.06;1699476;84;21435;-67
2022/07/09 04:18:21;;;;;;;10.18;9.18;;;;;;;19.78;62.93;99285.44;1699679;84;21421;-67
2022/07/09 04:20:47;;;;;;;8.60;7.70;;;;;;;20.23;61.88;99282.44;1686325;83;21576;-67
2022/07/09 04:23:13;;;;;;;12.55;11.33;;;;;;;21.14;60.11;99282.95;1692492;84;21383;-66
2022/07/09 04:25:40;;;;;;;12.15;8.60;;;;;;;22.14;57.66;99283.79;1694419;84;21115;-67
2022/07/09 04:28:06;;;;;;;9.28;7.70;;;;;;;23.11;54.64;99274.42;1696940;84;21549;-67
2022/07/09 04:30:35;;;;;;;9.08;7.40;;;;;;;23.97;52.44;99277.88;1690272;84;21033;-66
2022/07/09 04:33:02;;;;;;;8.33;7.47;;;;;;;24.89;49.59;99271.86;1691256;84;20873;-66
2022/07/09 04:35:28;;;;;;;9.90;7.67;;;;;;;25.69;47.76;99272.52;1686737;84;21034;-67
2022/07/09 04:37:55;;;;;;;7.20;6.55;;;;;;;26.61;45.27;99269.34;1691302;83;21830;-67
2022/07/09 04:40:22;;;;;;;7.72;6.83;;;;;;;27.44;43.47;99274.36;1699226;84;20932;-67
2022/07/09 04:42:50;;;;;;;8.43;6.67;;;;;;;28.29;41.73;99272.52;1692165;84;20927;-67
2022/07/09 04:45:17;;;;;;;6.05;5.45;;;;;;;29.00;39.62;99262.86;1694080;84;21064;-67
2022/07/09 04:47:43;;;;;;;7.95;6.95;;;;;;;29.69;38.15;99267.57;1692923;83;20883;-67
2022/07/09 04:50:11;;;;;;;7.30;6.60;;;;;;;30.29;36.83;99269.24;1693766;84;21233;-67
2022/07/09 04:52:38;;;;;;;6.12;5.53;;;;;;;30.83;35.72;99271.72;1691020;84;20960;-67
2022/07/09 04:55:07;;;;;;;7.50;4.50;;;;;;;31.29;34.50;99265.47;1696832;84;21438;-67
2022/07/09 04:57:34;;;;;;;4.80;3.77;;;;;;;31.50;33.85;99265.82;1697641;84;20910;-66
2022/07/09 05:00:02;;;;;;;6.83;4.08;;;;;;;31.80;33.25;99262.88;1690975;84;21149;-68
2022/07/09 05:02:29;;;;;;;4.00;3.62;;;;;;;32.05;32.93;99256.17;1692727;84;21130;-68
2022/07/09 05:04:56;;;;;;;3.45;3.08;;;;;;;32.55;32.20;99258.66;1695346;84;21062;-68
2022/07/09 05:07:23;;;;;;;2.72;2.52;;;;;;;32.97;31.23;99255.19;1690630;84;21010;-68
2022/07/09 05:09:49;;;;;;;4.97;4.47;;;;;;;33.35;30.59;99265.03;1693790;84;21198;-68
2022/07/09 05:12:16;;;;;;;3.60;3.30;;;;;;;33.76;30.14;99261.23;1697483;84;21098;-68
2022/07/09 05:14:43;;;;;;;2.40;2.10;;;;;;;34.36;29.10;99260.24;1694886;84;21267;-68
2022/07/09 05:17:10;;;;;;;4.15;2.12;;;;;;;34.58;28.46;99259.98;1696459;84;21484;-66
2022/07/09 05:19:38;;;;;;;2.62;1.95;;;;;;;34.83;28.34;99265.95;1689763;84;20995;-66
2022/07/09 05:22:04;;;;;;;2.85;1.92;;;;;;;35.20;27.75;99266.42;1693220;84;20954;-66
2022/07/09 05:24:31;;;;;;;2.10;1.90;;;;;;;35.59;27.10;99264.34;1692740;84;21343;-65
2022/07/09 05:26:59;;;;;;;2.08;1.70;;;;;;;35.72;26.65;99268.77;1695506;83;22087;-65
2022/07/09 05:29:26;;;;;;;3.65;1.75;;;;;;;35.82;26.40;99273.27;1693403;84;21078;-66
2022/07/09 05:31:52;;;;;;;3.92;1.92;;;;;;;36.03;26.19;99267.73;1693382;84;21055;-66
2022/07/09 05:34:19;;;;;;;2.72;1.85;;;;;;;36.37;25.78;99264.52;1693846;84;20995;-68
2022/07/09 05:36:46;;;;;;;3.27;1.72;;;;;;;36.63;25.21;99268.96;1698637;84;21184;-69
2022/07/09 05:39:12;;;;;;;3.87;2.00;;;;;;;36.72;24.87;99268.25;1696132;84;21136;-68
2022/07/09 05:41:38;;;;;;;4.90;3.77;;;;;;;36.70;24.82;99263.06;1689072;84;21003;-68
2022/07/09 05:44:05;;;;;;;4.12;1.75;;;;;;;36.82;24.83;99261.66;1690181;84;21036;-68
2022/07/09 05:46:31;;;;;;;3.15;1.65;;;;;;;37.24;24.52;99253.84;1686754;84;21152;-67
2022/07/09 05:48:58;;;;;;;2.30;1.55;;;;;;;37.75;23.95;99256.34;1692080;84;20943;-65
2022/07/09 05:51:24;;;;;;;1.75;1.65;;;;;;;38.28;23.34;99253.58;1688748;84;21235;-64
2022/07/09 05:53:51;;;;;;;1.35;1.25;;;;;;;38.76;22.80;99251.03;1687723;84;21053;-65
2022/07/09 05:56:18;;;;;;;1.45;1.35;;;;;;;39.02;22.33;99251.81;1694710;84;20940;-65
2022/07/09 05:58:45;;;;;;;2.65;2.25;;;;;;;39.21;22.10;99246.30;1699625;84;20984;-66
2022/07/09 06:01:13;;;;;;;5.80;3.77;;;;;;;39.43;21.84;99238.60;1697455;84;20994;-65
2022/07/09 06:03:40;;;;;;;2.12;1.98;;;;;;;39.35;21.69;99241.02;1689962;84;21256;-67
2022/07/09 06:06:07;;;;;;;2.58;2.00;;;;;;;38.06;22.66;99235.59;1688352;84;21518;-65
2022/07/09 06:08:33;;;;;;;2.65;2.10;;;;;;;36.46;24.31;99231.99;1689074;84;21008;-69
2022/07/09 06:11:02;;;;;;;3.15;1.85;;;;;;;35.21;25.72;99238.20;1695943;84;21603;-65
2022/07/09 06:13:29;;;;;;;2.08;1.87;;;;;;;34.06;27.22;99234.54;1696393;84;21470;-65
2022/07/09 06:15:56;;;;;;;3.37;3.08;;;;;;;33.46;28.32;99237.38;1692531;84;21257;-66
2022/07/09 06:18:22;;;;;;;5.80;4.42;;;;;;;33.81;28.39;99234.84;1690689;82;21404;-64
2022/07/09 06:20:49;;;;;;;6.00;3.85;;;;;;;34.57;27.76;99237.67;1696161;84;21491;-66
2022/07/09 06:23:16;;;;;;;3.22;2.92;;;;;;;35.53;26.84;99226.94;1694227;84;21074;-65
2022/07/09 06:25:42;;;;;;;3.72;2.70;;;;;;;36.55;25.85;99223.61;1694410;84;20978;-67
2022/07/09 06:28:10;;;;;;;2.10;1.82;;;;;;;37.55;24.49;99221.27;1696175;83;21002;-67
2022/07/09 06:30:37;;;;;;;3.92;1.82;;;;;;;37.90;23.80;99211.17;1696304;84;21072;-65
2022/07/09 06:33:04;;;;;;;1.72;1.50;;;;;;;37.82;23.99;99216.27;1696266;84;20938;-66
2022/07/09 06:35:32;;;;;;;3.77;1.60;;;;;;;38.26;23.63;99219.80;1696206;84;20906;-66
2022/07/09 06:38:00;;;;;;;1.80;1.57;;;;;;;38.58;22.96;99217.25;1696360;84;20934;-67
2022/07/09 06:40:27;;;;;;;2.05;1.30;;;;;;;38.97;22.60;99212.59;1696465;84;21264;-66
2022/07/09 06:42:53;;;;;;;1.85;1.15;;;;;;;39.47;22.17;99213.06;1696107;84;20890;-66
2022/07/09 06:45:22;;;;;;;1.95;1.25;;;;;;;40.06;21.53;99210.63;1694771;84;20918;-66
2022/07/09 06:47:50;;;;;;;1.27;1.17;;;;;;;40.14;20.99;99202.38;1696146;84;20906;-68
2022/07/09 06:50:16;;;;;;;1.50;1.27;;;;;;;39.93;21.30;99202.80;1696323;84;21009;-67
2022/07/09 06:52:43;;;;;;;1.77;1.50;;;;;;;39.71;21.29;99202.99;1692876;84;21249;-65
2022/07/09 06:55:10;;;;;;;2.08;1.70;;;;;;;39.73;21.34;99204.84;1687219;84;20985;-67
2022/07/09 06:57:37;;;;;;;3.50;3.20;;;;;;;40.16;21.02;99200.02;1689016;84;20898;-66
2022/07/09 07:00:09;;;;;;;3.92;2.90;;;;;;;40.30;20.57;99198.88;1696259;84;20970;-64
2022/07/09 07:02:35;;;;;;;5.12;3.37;;;;;;;39.36;21.22;99206.47;1696382;84;20989;-65
2022/07/09 07:05:02;;;;;;;7.45;4.05;;;;;;;38.94;21.94;99192.46;1696308;84;21242;-66
2022/07/09 07:07:29;;;;;;;5.92;4.40;;;;;;;39.30;21.77;99194.02;1696189;84;20930;-67
2022/07/09 07:09:56;;;;;;;5.08;4.30;;;;;;;39.55;21.27;99184.20;1688312;84;20977;-66
2022/07/09 07:12:22;;;;;;;5.87;5.12;;;;;;;39.70;21.26;99186.67;1696493;84;20951;-64
2022/07/09 07:14:50;;;;;;;7.35;5.97;;;;;;;39.98;21.13;99193.55;1696902;84;20941;-67
2022/07/09 07:17:17;;;;;;;9.43;7.55;;;;;;;40.49;20.75;99182.09;1696405;84;21145;-66
2022/07/09 07:19:43;;;;;;;7.78;7.08;;;;;;;41.27;20.36;99174.19;1695340;84;20912;-66
2022/07/09 07:22:10;;;;;;;6.45;4.80;;;;;;;42.08;19.60;99182.03;1693136;84;20985;-65
2022/07/09 07:24:36;;;;;;;7.95;7.15;;;;;;;42.62;18.93;99177.07;1697247;84;20979;-66
2022/07/09 07:27:05;;;;;;;7.25;5.95;;;;;;;42.90;18.40;99182.81;1696984;84;20979;-64
2022/07/09 07:29:33;;;;;;;2.75;2.47;;;;;;;43.43;17.97;99175.27;1698225;84;21781;-66
2022/07/09 07:31:59;;;;;;;2.42;2.17;;;;;;;43.69;17.32;99174.11;1698762;84;20979;-67
2022/07/09 07:34:26;;;;;;;2.08;1.42;;;;;;;43.87;16.94;99166.56;1697521;84;21502;-67
2022/07/09 07:36:52;;;;;;;1.85;1.75;;;;;;;44.20;16.65;99168.98;1699667;84;21454;-66
2022/07/09 07:39:21;;;;;;;2.15;1.65;;;;;;;44.43;16.24;99160.93;1693251;84;20999;-66
2022/07/09 07:41:48;;;;;;;2.22;1.65;;;;;;;44.21;15.83;99164.98;1695852;84;21165;-66
2022/07/09 07:44:14;;;;;;;6.37;3.67;;;;;;;43.82;15.77;99166.95;1694895;84;21003;-68
2022/07/09 07:46:41;;;;;;;4.83;4.00;;;;;;;43.27;16.34;99171.39;1690713;84;21018;-66
2022/07/09 07:49:08;;;;;;;4.80;4.17;;;;;;;43.22;16.63;99166.19;1696934;84;20947;-67
2022/07/09 07:51:35;;;;;;;7.67;5.30;;;;;;;43.38;16.67;99171.46;1694403;84;20939;-66
2022/07/09 07:54:01;;;;;;;4.70;4.08;;;;;;;43.61;16.29;99175.52;1693947;84;22062;-65
2022/07/09 07:56:32;;;;;;;4.72;3.87;;;;;;;43.76;15.87;99163.75;1697962;84;20943;-67
2022/07/09 07:58:58;;;;;;;4.78;3.77;;;;;;;44.01;15.79;99161.74;1699485;84;21496;-64
2022/07/09 08:01:25;;;;;;;3.17;2.25;;;;;;;44.12;15.87;99160.37;1695502;84;21461;-65
2022/07/09 08:03:51;;;;;;;2.40;2.20;;;;;;;44.13;15.80;99163.38;1697396;84;20912;-64
2022/07/09 08:06:18;;;;;;;2.77;2.50;;;;;;;44.42;15.33;99163.55;1698959;84;21264;-64
2022/07/09 08:08:44;;;;;;;4.08;3.50;;;;;;;44.16;15.51;99162.59;1698729;84;21016;-65
2022/07/09 08:11:13;;;;;;;6.55;4.90;;;;;;;44.26;15.64;99165.17;1699623;84;21632;-65
2022/07/09 08:13:40;;;;;;;9.08;6.00;;;;;;;44.30;15.73;99161.78;1693892;84;20974;-66
2022/07/09 08:16:07;;;;;;;5.05;4.58;;;;;;;43.60;16.46;99171.09;1694780;84;21008;-65
2022/07/09 08:18:34;;;;;;;9.08;7.28;;;;;;;43.38;16.75;99171.46;1695850;84;21248;-65
2022/07/09 08:21:00;;;;;;;6.97;4.90;;;;;;;43.42;16.63;99160.47;1695412;83;20927;-65
2022/07/09 08:23:27;;;;;;;3.77;3.25;;;;;;;43.47;16.55;99167.67;1695361;84;20993;-66
2022/07/09 08:25:53;;;;;;;2.67;2.47;;;;;;;43.55;16.49;99169.28;1696277;84;21076;-66
2022/07/09 08:28:20;;;;;;;3.12;2.50;;;;;;;43.55;16.24;99172.89;1698546;84;21046;-66
2022/07/09 08:30:46;;;;;;;3.47;2.20;;;;;;;43.82;16.07;99167.77;1698043;84;21242;-66
2022/07/09 08:33:13;;;;;;;3.62;1.10;;;;;;;43.86;15.42;99171.35;1699187;84;20944;-66
2022/07/09 08:35:39;;;;;;;1.47;1.10;;;;;;;43.16;15.44;99170.55;1698244;84;21002;-65
2022/07/09 08:38:06;;;;;;;4.55;3.10;;;;;;;42.87;15.81;99164.60;1689000;84;20998;-66
2022/07/09 08:40:32;;;;;;;2.70;2.25;;;;;;;43.10;15.87;99168.55;1696164;84;20893;-67
2022/07/09 08:42:59;;;;;;;3.35;1.65;;;;;;;43.78;15.66;99160.56;1688835;84;21234;-66
2022/07/09 08:45:26;;;;;;;1.60;1.47;;;;;;;44.38;15.31;99157.14;1697061;84;21168;-65
2022/07/09 08:47:52;;;;;;;1.60;1.50;;;;;;;44.14;15.52;99162.20;1695629;84;20943;-65
2022/07/09 08:50:20;;;;;;;1.67;1.10;;;;;;;42.39;16.80;99166.12;1698162;84;20931;-64
2022/07/09 08:52:48;;;;;;;1.72;1.62;;;;;;;40.26;18.91;99161.19;1692119;84;21014;-65
2022/07/09 08:55:15;;;;;;;1.77;1.42;;;;;;;38.24;21.06;99164.63;1698990;84;21274;-65
2022/07/09 08:57:41;;;;;;;6.55;1.47;;;;;;;36.59;22.98;99172.45;1678286;84;20892;-65
2022/07/09 09:00:09;;;;;;;1.32;1.22;;;;;;;35.21;24.67;99180.97;1695676;84;20975;-65
2022/07/09 09:02:37;;;;;;;1.72;1.62;;;;;;;34.07;26.29;99188.69;1698365;84;21015;-65
2022/07/09 09:05:12;;;;;;;1.65;1.32;;;;;;;33.29;27.67;99185.04;1697933;84;20899;-65
2022/07/09 09:07:38;;;;;;;3.33;1.60;;;;;;;32.47;28.66;99185.91;1698174;84;21239;-65
2022/07/09 09:10:08;;;;;;;1.40;1.30;;;;;;;31.66;30.03;99188.16;1695817;84;38616;-66
2022/07/09 09:12:35;;;;;;;2.37;1.67;;;;;;;30.96;31.17;99188.52;1693403;84;21484;-65
2022/07/09 09:15:06;;;;;;;2.25;1.45;;;;;;;30.23;32.24;99188.14;1696102;84;21020;-66
2022/07/09 09:17:33;;;;;;;1.40;1.30;;;;;;;29.60;33.50;99196.73;1694469;84;20903;-65
2022/07/09 09:20:13;;;;;;;1.32;1.22;;;;;;;28.91;34.78;99188.80;1701814;83;20927;-66
2022/07/09 09:22:48;;;;;;;2.60;1.30;;;;;;;28.59;35.85;99201.00;1693298;83;20907;-65
2022/07/09 09:25:19;;;;;;;1.40;1.30;;;;;;;29.12;35.64;99194.20;1696608;83;20962;-66
2022/07/09 09:27:58;;;;;;;1.52;1.42;;;;;;;30.44;34.16;99189.38;1696572;83;21053;-64
2022/07/09 09:30:26;;;;;;;1.47;1.37;;;;;;;31.28;32.50;99191.05;1696595;83;21474;-65
2022/07/09 09:33:02;;;;;;;1.20;1.17;;;;;;;30.99;32.33;99192.84;1696493;83;21191;-66
2022/07/09 09:35:34;;;;;;;5.17;1.67;;;;;;;30.65;33.01;99190.30;1696469;83;20951;-65
2022/07/09 09:38:01;;;;;;;1.60;1.32;;;;;;;31.08;32.89;99188.77;1696598;83;20945;-67
2022/07/09 09:40:27;;;;;;;3.17;1.42;;;;;;;31.90;31.70;99171.28;1696558;83;20970;-64
2022/07/09 09:42:56;;;;;;;1.20;1.05;;;;;;;32.28;30.91;99176.54;1696636;83;20866;-65
2022/07/09 09:45:23;;;;;;;1.10;1.10;;;;;;;32.04;31.10;99176.72;1696544;83;22206;-64
2022/07/09 09:47:51;;;;;;;1.30;1.12;;;;;;;31.64;31.49;99170.35;1696319;83;20985;-64
2022/07/09 09:50:20;;;;;;;1.50;0.95;;;;;;;31.47;31.86;99166.14;1696459;83;20955;-66
2022/07/09 09:52:49;;;;;;;1.60;1.10;;;;;;;31.20;31.90;99168.44;1700895;83;22277;-65
2022/07/09 09:55:17;;;;;;;1.12;0.80;;;;;;;30.89;32.33;99168.89;1696479;83;20970;-64
2022/07/09 09:57:43;;;;;;;1.82;1.07;;;;;;;30.82;32.72;99164.36;1697952;83;21315;-66
2022/07/09 10:00:15;;;;;;;1.77;1.00;;;;;;;30.76;32.89;99162.87;1706315;83;20980;-65
2022/07/09 10:02:46;;;;;;;1.75;1.35;;;;;;;30.75;32.91;99160.69;1696470;83;20951;-66
2022/07/09 10:05:13;;;;;;;1.32;1.30;;;;;;;30.73;32.73;99161.56;1695386;83;20897;-65
2022/07/09 10:07:41;;;;;;;1.77;1.50;;;;;;;30.71;32.81;99161.07;1696936;83;20863;-66
2022/07/09 10:10:17;;;;;;;0.90;0.90;;;;;;;30.61;33.10;99153.63;1670600;83;21252;-64
2022/07/09 10:12:44;;;;;;;1.17;1.07;;;;;;;30.69;33.43;99154.27;1696676;83;20887;-65
2022/07/09 10:15:23;;;;;;;2.10;0.90;;;;;;;30.78;33.21;99157.89;1696540;83;20950;-66
2022/07/09 10:17:50;;;;;;;1.22;1.00;;;;;;;30.75;33.04;99153.01;1696663;83;21556;-65
2022/07/09 10:20:17;;;;;;;1.12;1.02;;;;;;;30.62;33.10;99152.48;1696302;83;21033;-65
2022/07/09 10:22:45;;;;;;;1.92;1.00;;;;;;;30.36;33.34;99153.05;1693910;84;22113;-65
2022/07/09 10:25:15;;;;;;;1.30;1.00;;;;;;;30.15;33.72;99151.83;1696016;84;21476;-66
2022/07/09 10:27:46;;;;;;;0.82;0.82;;;;;;;29.95;34.14;99153.06;1694862;84;20971;-65
2022/07/09 10:30:32;;;;;;;1.62;1.47;;;;;;;29.98;34.42;99148.90;1696238;83;20906;-67
2022/07/09 10:33:09;;;;;;;2.70;1.10;;;;;;;29.91;34.13;99152.03;1696214;84;21024;-66
2022/07/09 10:35:47;;;;;;;1.15;0.72;;;;;;;29.71;34.14;99148.28;1696189;84;21177;-64
2022/07/09 10:38:15;;;;;;;1.12;1.00;;;;;;;29.46;34.58;99146.58;1696073;84;21392;-64
2022/07/09 10:40:46;;;;;;;2.42;1.10;;;;;;;29.35;35.01;99140.46;1696061;84;20902;-64
2022/07/09 10:43:14;;;;;;;2.87;1.45;;;;;;;29.30;35.31;99139.19;1695946;84;20894;-65
2022/07/09 10:45:45;;;;;;;1.70;1.40;;;;;;;29.33;35.28;99140.74;1696067;84;20993;-65
2022/07/09 10:48:15;;;;;;;1.30;1.20;;;;;;;29.22;35.50;99131.65;1696074;84;21256;-66
2022/07/09 10:50:44;;;;;;;1.82;1.50;;;;;;;29.03;36.03;99141.23;1696206;84;20910;-65
2022/07/09 10:53:13;;;;;;;2.27;1.67;;;;;;;28.97;36.39;99134.20;1694882;84;20982;-64
2022/07/09 10:55:45;;;;;;;1.00;0.90;;;;;;;28.95;36.22;99127.41;1696340;84;20933;-65
2022/07/09 10:58:19;;;;;;;2.20;1.10;;;;;;;28.84;36.33;99130.03;1696318;84;20902;-65
2022/07/09 11:00:59;;;;;;;1.35;1.20;;;;;;;28.66;36.32;99133.88;1687469;84;21116;-65
2022/07/09 11:03:29;;;;;;;1.25;1.00;;;;;;;28.49;36.50;99132.19;1696353;84;20966;-64
2022/07/09 11:05:56;;;;;;;1.00;1.00;;;;;;;28.27;36.93;99127.83;1696210;84;20978;-66
2022/07/09 11:08:24;;;;;;;1.42;0.90;;;;;;;28.14;37.17;99129.91;1696290;84;21518;-66
2022/07/09 11:10:52;;;;;;;2.10;0.82;;;;;;;28.10;36.98;99128.34;1696161;84;21056;-64
2022/07/09 11:13:24;;;;;;;1.02;0.60;;;;;;;28.09;36.83;99123.97;1696332;84;21254;-65
2022/07/09 11:15:57;;;;;;;1.85;0.88;;;;;;;28.02;36.59;99128.16;1696303;84;20950;-65
2022/07/09 11:18:26;;;;;;;0.70;0.70;;;;;;;27.87;36.98;99123.64;1696077;84;21479;-66
2022/07/09 11:20:53;;;;;;;1.57;0.98;;;;;;;27.86;37.19;99122.58;1696036;83;21060;-64
2022/07/09 11:23:19;;;;;;;2.35;1.12;;;;;;;27.89;37.18;99118.72;1696421;84;20951;-65
2022/07/09 11:25:46;;;;;;;3.12;0.70;;;;;;;27.94;37.42;99111.01;1697861;84;21254;-64
2022/07/09 11:28:20;;;;;;;0.70;0.70;;;;;;;27.96;37.47;99115.62;1698975;84;21003;-65
2022/07/09 11:31:02;;;;;;;1.07;0.82;;;;;;;27.97;37.71;99117.26;1699485;84;21599;-66
2022/07/09 11:34:10;;;;;;;0.80;0.80;;;;;;;28.04;37.77;99111.73;1695847;84;20954;-65